sensor_id;sensor_type;location;lat;lon;timestamp;pressure;altitude;pressure_sealevel;temperature;humidity
84835;BME280;75078;42.636;23.198;2024-03-07T00:00:27;91895.25;;;6.22;84.05
84835;BME280;75078;42.636;23.198;2024-03-07T00:02:53;91893.78;;;6.21;84.05
84835;BME280;75078;42.636;23.198;2024-03-07T00:05:21;91889.44;;;6.22;83.71
84835;BME280;75078;42.636;23.198;2024-03-07T00:07:49;91889.44;;;6.22;83.51
84835;BME280;75078;42.636;23.198;2024-03-07T00:10:15;91891.38;;;6.13;83.19
84835;BME280;75078;42.636;23.198;2024-03-07T00:12:40;91883.38;;;6.14;83.48
84835;BME280;75078;42.636;23.198;2024-03-07T00:15:10;91886.88;;;6.10;83.71
84835;BME280;75078;42.636;23.198;2024-03-07T00:17:36;91880.28;;;6.09;83.83
84835;BME280;75078;42.636;23.198;2024-03-07T00:20:02;91877.09;;;6.00;83.96
84835;BME280;75078;42.636;23.198;2024-03-07T00:22:37;91875.59;;;5.99;82.52
84835;BME280;75078;42.636;23.198;2024-03-07T00:25:04;91880.91;;;5.81;81.95
84835;BME280;75078;42.636;23.198;2024-03-07T00:27:34;91883.25;;;5.62;82.96
84835;BME280;75078;42.636;23.198;2024-03-07T00:30:00;91883.03;;;5.55;83.70
84835;BME280;75078;42.636;23.198;2024-03-07T00:32:26;91878.31;;;5.45;84.93
84835;BME280;75078;42.636;23.198;2024-03-07T00:34:55;91882.13;;;5.27;84.47
84835;BME280;75078;42.636;23.198;2024-03-07T00:37:22;91880.81;;;5.09;86.32
84835;BME280;75078;42.636;23.198;2024-03-07T00:39:47;91879.09;;;5.01;86.10
84835;BME280;75078;42.636;23.198;2024-03-07T00:42:13;91875.88;;;4.92;86.66
84835;BME280;75078;42.636;23.198;2024-03-07T00:44:38;91873.66;;;4.90;86.35
84835;BME280;75078;42.636;23.198;2024-03-07T00:47:03;91871.31;;;4.85;86.89
84835;BME280;75078;42.636;23.198;2024-03-07T00:49:29;91871.31;;;4.85;87.52
84835;BME280;75078;42.636;23.198;2024-03-07T00:51:56;91871.72;;;4.87;87.48
84835;BME280;75078;42.636;23.198;2024-03-07T00:54:21;91869.19;;;4.87;86.94
84835;BME280;75078;42.636;23.198;2024-03-07T00:56:47;91861.63;;;4.91;88.04
84835;BME280;75078;42.636;23.198;2024-03-07T00:59:17;91854.13;;;4.94;86.00
84835;BME280;75078;42.636;23.198;2024-03-07T01:01:43;91851.78;;;5.01;86.93
84835;BME280;75078;42.636;23.198;2024-03-07T01:04:08;91846.13;;;4.96;85.68
84835;BME280;75078;42.636;23.198;2024-03-07T01:06:35;91851.13;;;4.92;86.40
84835;BME280;75078;42.636;23.198;2024-03-07T01:09:01;91844.94;;;4.81;83.40
84835;BME280;75078;42.636;23.198;2024-03-07T01:11:27;91843.00;;;4.78;82.55
84835;BME280;75078;42.636;23.198;2024-03-07T01:13:52;91836.00;;;4.75;83.70
84835;BME280;75078;42.636;23.198;2024-03-07T01:16:17;91843.97;;;4.74;84.04
84835;BME280;75078;42.636;23.198;2024-03-07T01:18:43;91845.22;;;4.68;83.89
84835;BME280;75078;42.636;23.198;2024-03-07T01:21:08;91840.31;;;4.63;82.43
84835;BME280;75078;42.636;23.198;2024-03-07T01:23:34;91828.94;;;4.60;82.07
84835;BME280;75078;42.636;23.198;2024-03-07T01:25:59;91839.25;;;4.64;82.59
84835;BME280;75078;42.636;23.198;2024-03-07T01:28:26;91831.16;;;4.62;83.22
84835;BME280;75078;42.636;23.198;2024-03-07T01:30:52;91832.91;;;4.70;83.57
84835;BME280;75078;42.636;23.198;2024-03-07T01:33:18;91822.47;;;4.63;85.08
84835;BME280;75078;42.636;23.198;2024-03-07T01:35:44;91826.31;;;4.69;85.26
84835;BME280;75078;42.636;23.198;2024-03-07T01:38:10;91826.13;;;4.74;84.26
84835;BME280;75078;42.636;23.198;2024-03-07T01:40:36;91827.53;;;4.83;85.32
84835;BME280;75078;42.636;23.198;2024-03-07T01:43:02;91834.97;;;4.88;84.19
84835;BME280;75078;42.636;23.198;2024-03-07T01:45:28;91851.25;;;4.63;82.48
84835;BME280;75078;42.636;23.198;2024-03-07T01:47:54;91862.59;;;4.54;83.02
84835;BME280;75078;42.636;23.198;2024-03-07T01:50:21;91863.38;;;4.46;82.43
84835;BME280;75078;42.636;23.198;2024-03-07T01:52:46;91855.06;;;4.36;84.00
84835;BME280;75078;42.636;23.198;2024-03-07T01:55:12;91854.69;;;4.26;83.73
84835;BME280;75078;42.636;23.198;2024-03-07T01:57:38;91853.91;;;4.13;83.79
84835;BME280;75078;42.636;23.198;2024-03-07T02:00:04;91852.22;;;4.17;83.85
84835;BME280;75078;42.636;23.198;2024-03-07T02:02:32;91855.75;;;4.04;83.47
84835;BME280;75078;42.636;23.198;2024-03-07T02:04:58;91852.47;;;4.04;84.78
84835;BME280;75078;42.636;23.198;2024-03-07T02:07:23;91844.00;;;3.91;85.09
84835;BME280;75078;42.636;23.198;2024-03-07T02:09:49;91842.13;;;4.00;84.86
84835;BME280;75078;42.636;23.198;2024-03-07T02:12:14;91832.44;;;3.94;83.86
84835;BME280;75078;42.636;23.198;2024-03-07T02:14:39;91826.63;;;3.93;83.40
84835;BME280;75078;42.636;23.198;2024-03-07T02:17:05;91822.56;;;3.92;84.55
84835;BME280;75078;42.636;23.198;2024-03-07T02:19:30;91820.03;;;3.92;84.97
84835;BME280;75078;42.636;23.198;2024-03-07T02:21:57;91824.06;;;3.93;84.52
84835;BME280;75078;42.636;23.198;2024-03-07T02:24:22;91833.03;;;3.99;84.86
84835;BME280;75078;42.636;23.198;2024-03-07T02:26:49;91832.59;;;3.97;83.66
84835;BME280;75078;42.636;23.198;2024-03-07T02:29:14;91839.41;;;4.05;82.78
84835;BME280;75078;42.636;23.198;2024-03-07T02:31:39;91838.19;;;4.11;82.42
84835;BME280;75078;42.636;23.198;2024-03-07T02:34:07;91843.28;;;4.11;83.31
84835;BME280;75078;42.636;23.198;2024-03-07T02:36:35;91856.31;;;4.10;84.33
84835;BME280;75078;42.636;23.198;2024-03-07T02:39:00;91850.28;;;4.14;83.06
84835;BME280;75078;42.636;23.198;2024-03-07T02:41:26;91854.09;;;4.08;83.84
84835;BME280;75078;42.636;23.198;2024-03-07T02:43:52;91855.44;;;4.06;85.77
84835;BME280;75078;42.636;23.198;2024-03-07T02:46:18;91842.38;;;4.07;84.93
84835;BME280;75078;42.636;23.198;2024-03-07T02:48:43;91845.56;;;4.04;85.45
84835;BME280;75078;42.636;23.198;2024-03-07T02:51:09;91841.34;;;4.08;85.28
84835;BME280;75078;42.636;23.198;2024-03-07T02:53:34;91828.44;;;4.13;86.08
84835;BME280;75078;42.636;23.198;2024-03-07T02:56:00;91828.47;;;4.25;86.63
84835;BME280;75078;42.636;23.198;2024-03-07T02:58:25;91835.94;;;4.30;85.80
84835;BME280;75078;42.636;23.198;2024-03-07T03:00:58;91840.84;;;4.35;85.94
84835;BME280;75078;42.636;23.198;2024-03-07T03:03:27;91841.94;;;4.47;85.55
84835;BME280;75078;42.636;23.198;2024-03-07T03:05:53;91841.75;;;4.52;84.57
84835;BME280;75078;42.636;23.198;2024-03-07T03:08:18;91847.81;;;4.59;85.46
84835;BME280;75078;42.636;23.198;2024-03-07T03:10:43;91842.63;;;4.56;85.60
84835;BME280;75078;42.636;23.198;2024-03-07T03:13:09;91842.00;;;4.59;85.34
84835;BME280;75078;42.636;23.198;2024-03-07T03:15:35;91838.13;;;4.53;85.27
84835;BME280;75078;42.636;23.198;2024-03-07T03:18:03;91840.00;;;4.44;85.36
84835;BME280;75078;42.636;23.198;2024-03-07T03:20:28;91848.56;;;4.48;86.14
84835;BME280;75078;42.636;23.198;2024-03-07T03:23:00;91847.63;;;4.31;85.33
84835;BME280;75078;42.636;23.198;2024-03-07T03:25:28;91855.94;;;4.41;86.03
84835;BME280;75078;42.636;23.198;2024-03-07T03:27:53;91861.34;;;4.39;85.44
84835;BME280;75078;42.636;23.198;2024-03-07T03:30:18;91860.41;;;4.44;86.34
84835;BME280;75078;42.636;23.198;2024-03-07T03:32:47;91863.94;;;4.51;86.07
84835;BME280;75078;42.636;23.198;2024-03-07T03:35:14;91850.88;;;4.53;84.97
84835;BME280;75078;42.636;23.198;2024-03-07T03:37:43;91843.38;;;4.35;85.71
84835;BME280;75078;42.636;23.198;2024-03-07T03:40:09;91835.31;;;4.33;86.40
84835;BME280;75078;42.636;23.198;2024-03-07T03:42:38;91829.81;;;4.44;86.88
84835;BME280;75078;42.636;23.198;2024-03-07T03:45:04;91825.09;;;4.54;85.81
84835;BME280;75078;42.636;23.198;2024-03-07T03:47:36;91833.72;;;4.62;85.15
84835;BME280;75078;42.636;23.198;2024-03-07T03:50:05;91835.75;;;4.68;85.71
84835;BME280;75078;42.636;23.198;2024-03-07T03:52:31;91837.81;;;4.75;85.29
84835;BME280;75078;42.636;23.198;2024-03-07T03:54:58;91819.31;;;4.78;85.59
84835;BME280;75078;42.636;23.198;2024-03-07T03:57:24;91828.56;;;4.82;85.35
84835;BME280;75078;42.636;23.198;2024-03-07T03:59:49;91825.91;;;4.79;84.03
84835;BME280;75078;42.636;23.198;2024-03-07T04:02:15;91826.22;;;4.77;83.44
84835;BME280;75078;42.636;23.198;2024-03-07T04:04:42;91835.25;;;4.75;83.86
84835;BME280;75078;42.636;23.198;2024-03-07T04:07:07;91829.53;;;4.78;84.29
84835;BME280;75078;42.636;23.198;2024-03-07T04:09:32;91834.00;;;4.81;84.26
84835;BME280;75078;42.636;23.198;2024-03-07T04:11:58;91831.44;;;4.81;83.61
84835;BME280;75078;42.636;23.198;2024-03-07T04:14:24;91829.94;;;4.80;83.68
84835;BME280;75078;42.636;23.198;2024-03-07T04:16:50;91836.00;;;4.75;83.81
84835;BME280;75078;42.636;23.198;2024-03-07T04:19:15;91831.97;;;4.74;83.79
84835;BME280;75078;42.636;23.198;2024-03-07T04:21:40;91839.63;;;4.74;83.50
84835;BME280;75078;42.636;23.198;2024-03-07T04:24:06;91836.06;;;4.67;83.24
84835;BME280;75078;42.636;23.198;2024-03-07T04:26:32;91836.06;;;4.67;84.35
84835;BME280;75078;42.636;23.198;2024-03-07T04:28:57;91844.47;;;4.67;83.38
84835;BME280;75078;42.636;23.198;2024-03-07T04:31:23;91846.69;;;4.69;83.13
84835;BME280;75078;42.636;23.198;2024-03-07T04:33:48;91835.88;;;4.72;84.15
84835;BME280;75078;42.636;23.198;2024-03-07T04:36:14;91828.00;;;4.65;84.78
84835;BME280;75078;42.636;23.198;2024-03-07T04:38:39;91836.63;;;4.72;84.31
84835;BME280;75078;42.636;23.198;2024-03-07T04:41:13;91828.66;;;4.74;84.32
84835;BME280;75078;42.636;23.198;2024-03-07T04:43:40;91827.91;;;4.73;85.04
84835;BME280;75078;42.636;23.198;2024-03-07T04:46:07;91836.97;;;4.83;84.82
84835;BME280;75078;42.636;23.198;2024-03-07T04:48:33;91832.72;;;4.75;85.70
84835;BME280;75078;42.636;23.198;2024-03-07T04:50:58;91831.22;;;4.74;85.63
84835;BME280;75078;42.636;23.198;2024-03-07T04:53:23;91831.44;;;4.81;85.61
84835;BME280;75078;42.636;23.198;2024-03-07T04:55:49;91839.75;;;4.90;85.34
84835;BME280;75078;42.636;23.198;2024-03-07T04:58:15;91839.13;;;4.93;84.50
84835;BME280;75078;42.636;23.198;2024-03-07T05:00:40;91838.19;;;4.97;84.52
84835;BME280;75078;42.636;23.198;2024-03-07T05:03:05;91833.81;;;4.98;84.95
84835;BME280;75078;42.636;23.198;2024-03-07T05:05:31;91838.91;;;4.98;83.81
84835;BME280;75078;42.636;23.198;2024-03-07T05:07:56;91840.53;;;5.02;83.74
84835;BME280;75078;42.636;23.198;2024-03-07T05:10:22;91833.94;;;5.01;85.07
84835;BME280;75078;42.636;23.198;2024-03-07T05:12:47;91833.94;;;5.01;83.71
84835;BME280;75078;42.636;23.198;2024-03-07T05:15:12;91836.78;;;5.00;84.75
84835;BME280;75078;42.636;23.198;2024-03-07T05:17:38;91828.72;;;4.98;85.23
84835;BME280;75078;42.636;23.198;2024-03-07T05:20:05;91848.50;;;5.01;85.38
84835;BME280;75078;42.636;23.198;2024-03-07T05:22:38;91846.56;;;4.98;86.04
84835;BME280;75078;42.636;23.198;2024-03-07T05:25:06;91842.06;;;4.83;86.54
84835;BME280;75078;42.636;23.198;2024-03-07T05:27:32;91850.78;;;4.82;85.71
84835;BME280;75078;42.636;23.198;2024-03-07T05:29:58;91846.44;;;4.82;86.64
84835;BME280;75078;42.636;23.198;2024-03-07T05:32:25;91850.28;;;4.88;86.14
84835;BME280;75078;42.636;23.198;2024-03-07T05:34:51;91855.50;;;4.92;86.44
84835;BME280;75078;42.636;23.198;2024-03-07T05:37:19;91850.81;;;4.94;86.04
84835;BME280;75078;42.636;23.198;2024-03-07T05:39:49;91853.88;;;4.87;87.08
84835;BME280;75078;42.636;23.198;2024-03-07T05:42:14;91856.34;;;4.96;86.76
84835;BME280;75078;42.636;23.198;2024-03-07T05:44:41;91860.81;;;4.99;87.12
84835;BME280;75078;42.636;23.198;2024-03-07T05:47:07;91855.81;;;5.02;85.61
84835;BME280;75078;42.636;23.198;2024-03-07T05:49:33;91859.69;;;5.08;86.75
84835;BME280;75078;42.636;23.198;2024-03-07T05:51:58;91859.44;;;5.01;85.45
84835;BME280;75078;42.636;23.198;2024-03-07T05:54:23;91865.72;;;5.04;86.32
84835;BME280;75078;42.636;23.198;2024-03-07T05:56:49;91875.28;;;5.07;86.11
84835;BME280;75078;42.636;23.198;2024-03-07T05:59:16;91876.66;;;4.92;87.23
84835;BME280;75078;42.636;23.198;2024-03-07T06:01:42;91876.75;;;4.96;86.62
84835;BME280;75078;42.636;23.198;2024-03-07T06:04:09;91878.44;;;4.92;86.69
84835;BME280;75078;42.636;23.198;2024-03-07T06:06:36;91878.00;;;4.90;86.01
84835;BME280;75078;42.636;23.198;2024-03-07T06:09:08;91886.47;;;4.82;86.56
84835;BME280;75078;42.636;23.198;2024-03-07T06:11:37;91895.25;;;4.93;84.65
84835;BME280;75078;42.636;23.198;2024-03-07T06:14:03;91902.34;;;4.87;85.03
84835;BME280;75078;42.636;23.198;2024-03-07T06:16:33;91894.94;;;4.74;86.30
84835;BME280;75078;42.636;23.198;2024-03-07T06:19:02;91899.44;;;4.77;86.32
84835;BME280;75078;42.636;23.198;2024-03-07T06:21:29;91890.72;;;4.78;85.28
84835;BME280;75078;42.636;23.198;2024-03-07T06:23:57;91898.44;;;4.69;87.40
84835;BME280;75078;42.636;23.198;2024-03-07T06:29:03;91896.91;;;4.89;85.20
84835;BME280;75078;42.636;23.198;2024-03-07T06:31:30;91895.25;;;4.93;86.08
84835;BME280;75078;42.636;23.198;2024-03-07T06:33:56;91892.47;;;4.98;85.93
84835;BME280;75078;42.636;23.198;2024-03-07T06:36:22;91898.91;;;5.04;85.82
84835;BME280;75078;42.636;23.198;2024-03-07T06:38:48;91898.00;;;5.00;86.10
84835;BME280;75078;42.636;23.198;2024-03-07T06:41:13;91898.16;;;5.03;85.77
84835;BME280;75078;42.636;23.198;2024-03-07T06:43:39;91896.44;;;5.07;85.38
84835;BME280;75078;42.636;23.198;2024-03-07T06:46:04;91902.09;;;5.13;84.12
84835;BME280;75078;42.636;23.198;2024-03-07T06:48:31;91898.28;;;5.19;85.21
84835;BME280;75078;42.636;23.198;2024-03-07T06:50:57;91901.06;;;5.26;84.67
84835;BME280;75078;42.636;23.198;2024-03-07T06:53:22;91893.50;;;5.30;85.37
84835;BME280;75078;42.636;23.198;2024-03-07T06:55:51;91898.53;;;5.38;85.75
84835;BME280;75078;42.636;23.198;2024-03-07T06:58:19;91888.88;;;5.44;86.55
84835;BME280;75078;42.636;23.198;2024-03-07T07:00:45;91876.19;;;5.47;86.22
84835;BME280;75078;42.636;23.198;2024-03-07T07:03:11;91875.78;;;5.57;86.60
84835;BME280;75078;42.636;23.198;2024-03-07T07:05:39;91872.94;;;5.71;85.83
84835;BME280;75078;42.636;23.198;2024-03-07T07:08:06;91868.78;;;5.78;86.29
84835;BME280;75078;42.636;23.198;2024-03-07T07:10:32;91884.75;;;5.75;84.55
84835;BME280;75078;42.636;23.198;2024-03-07T07:12:57;91878.38;;;5.69;84.72
84835;BME280;75078;42.636;23.198;2024-03-07T07:15:22;91880.88;;;5.45;84.03
84835;BME280;75078;42.636;23.198;2024-03-07T07:17:49;91882.94;;;5.07;84.42
84835;BME280;75078;42.636;23.198;2024-03-07T07:20:18;91888.53;;;4.88;85.12
84835;BME280;75078;42.636;23.198;2024-03-07T07:22:45;91886.84;;;4.92;86.53
84835;BME280;75078;42.636;23.198;2024-03-07T07:25:15;91890.81;;;5.02;86.64
84835;BME280;75078;42.636;23.198;2024-03-07T07:27:48;91878.88;;;4.94;86.05
84835;BME280;75078;42.636;23.198;2024-03-07T07:30:18;91878.25;;;4.97;86.20
84835;BME280;75078;42.636;23.198;2024-03-07T07:32:45;91872.50;;;5.00;85.97
84835;BME280;75078;42.636;23.198;2024-03-07T07:35:11;91867.84;;;5.02;85.75
84835;BME280;75078;42.636;23.198;2024-03-07T07:37:42;91868.91;;;5.01;85.40
84835;BME280;75078;42.636;23.198;2024-03-07T07:40:09;91867.41;;;5.00;85.83
84835;BME280;75078;42.636;23.198;2024-03-07T07:42:38;91864.19;;;4.91;86.50
84835;BME280;75078;42.636;23.198;2024-03-07T07:45:10;91869.09;;;4.96;85.99
84835;BME280;75078;42.636;23.198;2024-03-07T07:47:42;91878.19;;;4.85;87.05
84835;BME280;75078;42.636;23.198;2024-03-07T07:50:12;91879.50;;;4.91;86.47
84835;BME280;75078;42.636;23.198;2024-03-07T07:52:47;91886.72;;;4.89;85.69
84835;BME280;75078;42.636;23.198;2024-03-07T07:55:16;91879.72;;;4.98;87.32
84835;BME280;75078;42.636;23.198;2024-03-07T07:57:47;91883.59;;;5.04;88.23
84835;BME280;75078;42.636;23.198;2024-03-07T08:00:14;91894.75;;;5.12;87.01
84835;BME280;75078;42.636;23.198;2024-03-07T08:03:05;91894.97;;;5.19;85.92
84835;BME280;75078;42.636;23.198;2024-03-07T08:05:35;91905.47;;;5.05;86.14
84835;BME280;75078;42.636;23.198;2024-03-07T08:08:03;91903.59;;;5.14;86.47
84835;BME280;75078;42.636;23.198;2024-03-07T08:10:32;91911.91;;;5.23;84.73
84835;BME280;75078;42.636;23.198;2024-03-07T08:12:58;91912.75;;;5.27;84.47
84835;BME280;75078;42.636;23.198;2024-03-07T08:15:28;91913.88;;;5.50;86.27
84835;BME280;75078;42.636;23.198;2024-03-07T08:17:54;91913.25;;;5.65;86.31
84835;BME280;75078;42.636;23.198;2024-03-07T08:20:21;91916.13;;;5.76;80.78
84835;BME280;75078;42.636;23.198;2024-03-07T08:22:48;91916.81;;;5.85;85.10
84835;BME280;75078;42.636;23.198;2024-03-07T08:25:17;91925.31;;;6.01;83.24
84835;BME280;75078;42.636;23.198;2024-03-07T08:27:45;91925.00;;;5.91;83.88
84835;BME280;75078;42.636;23.198;2024-03-07T08:30:14;91922.88;;;6.05;83.22
84835;BME280;75078;42.636;23.198;2024-03-07T08:32:45;91924.13;;;6.11;82.83
84835;BME280;75078;42.636;23.198;2024-03-07T08:35:11;91922.34;;;5.99;84.32
84835;BME280;75078;42.636;23.198;2024-03-07T08:37:42;91924.88;;;6.11;84.22
84835;BME280;75078;42.636;23.198;2024-03-07T08:40:08;91934.56;;;6.18;83.66
84835;BME280;75078;42.636;23.198;2024-03-07T08:42:47;91930.19;;;6.18;81.32
84835;BME280;75078;42.636;23.198;2024-03-07T08:45:13;91938.00;;;6.22;81.50
84835;BME280;75078;42.636;23.198;2024-03-07T08:47:43;91937.56;;;6.08;76.99
84835;BME280;75078;42.636;23.198;2024-03-07T08:50:09;91952.47;;;6.06;77.87
84835;BME280;75078;42.636;23.198;2024-03-07T08:52:35;91948.00;;;6.03;77.83
84835;BME280;75078;42.636;23.198;2024-03-07T08:55:05;91953.09;;;6.03;77.14
84835;BME280;75078;42.636;23.198;2024-03-07T08:57:30;91948.00;;;6.03;77.52
84835;BME280;75078;42.636;23.198;2024-03-07T08:59:56;91948.41;;;6.05;77.51
84835;BME280;75078;42.636;23.198;2024-03-07T09:02:22;91952.91;;;6.08;77.05
84835;BME280;75078;42.636;23.198;2024-03-07T09:04:48;91948.09;;;6.06;75.44
84835;BME280;75078;42.636;23.198;2024-03-07T09:07:13;91947.78;;;6.08;75.65
84835;BME280;75078;42.636;23.198;2024-03-07T09:09:40;91947.03;;;6.07;74.68
84835;BME280;75078;42.636;23.198;2024-03-07T09:12:08;91953.31;;;6.10;74.71
84835;BME280;75078;42.636;23.198;2024-03-07T09:14:34;91952.91;;;6.08;76.17
84835;BME280;75078;42.636;23.198;2024-03-07T09:17:00;91948.22;;;6.10;76.51
84835;BME280;75078;42.636;23.198;2024-03-07T09:19:25;91948.84;;;6.07;75.06
84835;BME280;75078;42.636;23.198;2024-03-07T09:21:52;91953.66;;;6.08;74.97
84835;BME280;75078;42.636;23.198;2024-03-07T09:24:19;91958.00;;;6.20;74.75
84835;BME280;75078;42.636;23.198;2024-03-07T09:26:50;91958.66;;;6.17;75.45
84835;BME280;75078;42.636;23.198;2024-03-07T09:29:17;91961.00;;;6.22;75.27
84835;BME280;75078;42.636;23.198;2024-03-07T09:31:44;91956.09;;;6.17;74.65
84835;BME280;75078;42.636;23.198;2024-03-07T09:34:09;91953.53;;;6.17;77.12
84835;BME280;75078;42.636;23.198;2024-03-07T09:36:35;91955.00;;;6.18;77.79
84835;BME280;75078;42.636;23.198;2024-03-07T09:39:00;91955.97;;;6.25;76.39
84835;BME280;75078;42.636;23.198;2024-03-07T09:41:26;91956.19;;;6.32;76.23
84835;BME280;75078;42.636;23.198;2024-03-07T09:43:52;91961.84;;;6.26;79.88
84835;BME280;75078;42.636;23.198;2024-03-07T09:46:23;91954.38;;;6.21;80.05
84835;BME280;75078;42.636;23.198;2024-03-07T09:48:50;91951.81;;;6.21;80.00
84835;BME280;75078;42.636;23.198;2024-03-07T09:51:20;91944.16;;;6.21;80.71
84835;BME280;75078;42.636;23.198;2024-03-07T09:53:49;91948.09;;;6.30;81.87
84835;BME280;75078;42.636;23.198;2024-03-07T09:56:27;91947.34;;;6.42;82.07
84835;BME280;75078;42.636;23.198;2024-03-07T09:58:57;91942.09;;;6.50;81.40
84835;BME280;75078;42.636;23.198;2024-03-07T10:01:25;91941.34;;;6.50;81.40
84835;BME280;75078;42.636;23.198;2024-03-07T10:04:02;91933.88;;;6.69;79.54
84835;BME280;75078;42.636;23.198;2024-03-07T10:06:45;91931.00;;;6.98;73.64
84835;BME280;75078;42.636;23.198;2024-03-07T10:09:11;91927.28;;;7.23;72.44
84835;BME280;75078;42.636;23.198;2024-03-07T10:11:42;91926.50;;;7.51;72.26
84835;BME280;75078;42.636;23.198;2024-03-07T10:14:08;91916.38;;;7.58;67.57
84835;BME280;75078;42.636;23.198;2024-03-07T10:16:34;91917.16;;;7.74;68.88
84835;BME280;75078;42.636;23.198;2024-03-07T10:18:59;91916.25;;;7.82;67.57
84835;BME280;75078;42.636;23.198;2024-03-07T10:21:27;91910.03;;;7.83;69.28
84835;BME280;75078;42.636;23.198;2024-03-07T10:24:06;91916.16;;;7.94;69.23
84835;BME280;75078;42.636;23.198;2024-03-07T10:26:37;91917.41;;;8.00;72.48
84835;BME280;75078;42.636;23.198;2024-03-07T10:29:04;91916.47;;;8.08;73.21
84835;BME280;75078;42.636;23.198;2024-03-07T10:31:30;91909.44;;;8.05;74.01
84835;BME280;75078;42.636;23.198;2024-03-07T10:34:03;91913.34;;;7.83;75.84
84835;BME280;75078;42.636;23.198;2024-03-07T10:36:32;91917.72;;;7.83;74.60
84835;BME280;75078;42.636;23.198;2024-03-07T10:38:58;91917.56;;;7.76;74.61
84835;BME280;75078;42.636;23.198;2024-03-07T10:41:47;91913.59;;;7.63;77.21
84835;BME280;75078;42.636;23.198;2024-03-07T10:44:19;91919.69;;;7.43;77.80
84835;BME280;75078;42.636;23.198;2024-03-07T10:46:52;91912.91;;;7.35;77.07
84835;BME280;75078;42.636;23.198;2024-03-07T10:49:19;91924.59;;;7.20;77.91
84835;BME280;75078;42.636;23.198;2024-03-07T10:52:13;91914.34;;;7.04;78.62
84835;BME280;75078;42.636;23.198;2024-03-07T10:55:00;91911.25;;;6.99;79.40
84835;BME280;75078;42.636;23.198;2024-03-07T10:57:39;91911.81;;;6.92;79.16
84835;BME280;75078;42.636;23.198;2024-03-07T11:00:07;91909.13;;;7.01;80.73
84835;BME280;75078;42.636;23.198;2024-03-07T11:02:55;91907.28;;;7.01;79.12
84835;BME280;75078;42.636;23.198;2024-03-07T11:05:22;91910.53;;;6.98;79.67
84835;BME280;75078;42.636;23.198;2024-03-07T11:07:50;91909.78;;;6.98;77.23
84835;BME280;75078;42.636;23.198;2024-03-07T11:10:18;91901.28;;;6.94;78.71
84835;BME280;75078;42.636;23.198;2024-03-07T11:12:45;91895.34;;;7.05;79.38
84835;BME280;75078;42.636;23.198;2024-03-07T11:15:12;91897.19;;;7.20;79.13
84835;BME280;75078;42.636;23.198;2024-03-07T11:17:44;91900.91;;;7.23;79.24
84835;BME280;75078;42.636;23.198;2024-03-07T11:22:50;91897.00;;;7.13;77.65
84835;BME280;75078;42.636;23.198;2024-03-07T11:25:19;91895.44;;;7.09;78.64
84835;BME280;75078;42.636;23.198;2024-03-07T11:27:54;91889.38;;;7.01;78.80
84835;BME280;75078;42.636;23.198;2024-03-07T11:30:21;91892.53;;;7.10;78.01
84835;BME280;75078;42.636;23.198;2024-03-07T11:32:47;91886.75;;;6.98;78.86
84835;BME280;75078;42.636;23.198;2024-03-07T11:35:15;91891.13;;;6.97;78.90
84835;BME280;75078;42.636;23.198;2024-03-07T11:37:44;91887.50;;;6.98;78.64
84835;BME280;75078;42.636;23.198;2024-03-07T11:42:57;91888.16;;;7.11;77.64
84835;BME280;75078;42.636;23.198;2024-03-07T11:45:25;91891.47;;;7.11;77.77
84835;BME280;75078;42.636;23.198;2024-03-07T11:47:55;91884.44;;;7.08;77.13
84835;BME280;75078;42.636;23.198;2024-03-07T11:50:36;91884.63;;;7.15;77.53
84835;BME280;75078;42.636;23.198;2024-03-07T11:53:02;91885.88;;;7.21;77.92
84835;BME280;75078;42.636;23.198;2024-03-07T11:55:31;91883.16;;;7.14;76.50
84835;BME280;75078;42.636;23.198;2024-03-07T11:58:09;91873.66;;;7.31;77.63
84835;BME280;75078;42.636;23.198;2024-03-07T12:00:38;91875.97;;;7.36;75.27
84835;BME280;75078;42.636;23.198;2024-03-07T12:03:08;91873.25;;;7.44;75.54
84835;BME280;75078;42.636;23.198;2024-03-07T12:05:33;91874.91;;;7.37;77.54
84835;BME280;75078;42.636;23.198;2024-03-07T12:07:59;91867.16;;;7.49;76.42
84835;BME280;75078;42.636;23.198;2024-03-07T12:10:25;91867.88;;;7.34;76.05
84835;BME280;75078;42.636;23.198;2024-03-07T12:12:51;91870.63;;;7.41;77.40
84835;BME280;75078;42.636;23.198;2024-03-07T12:15:16;91866.91;;;7.38;76.41
84835;BME280;75078;42.636;23.198;2024-03-07T12:17:46;91869.22;;;7.43;76.08
84835;BME280;75078;42.636;23.198;2024-03-07T12:20:14;91870.16;;;7.51;77.59
84835;BME280;75078;42.636;23.198;2024-03-07T12:23:01;91873.59;;;7.43;76.49
84835;BME280;75078;42.636;23.198;2024-03-07T12:25:28;91872.19;;;7.45;76.88
84835;BME280;75078;42.636;23.198;2024-03-07T12:28:03;91872.13;;;7.42;77.20
84835;BME280;75078;42.636;23.198;2024-03-07T12:30:32;91869.22;;;7.28;77.27
84835;BME280;75078;42.636;23.198;2024-03-07T12:33:01;91866.66;;;7.28;77.30
84835;BME280;75078;42.636;23.198;2024-03-07T12:35:32;91867.94;;;7.21;77.04
84835;BME280;75078;42.636;23.198;2024-03-07T12:37:58;91874.38;;;7.15;77.22
84835;BME280;75078;42.636;23.198;2024-03-07T12:40:25;91874.56;;;7.22;77.34
84835;BME280;75078;42.636;23.198;2024-03-07T12:42:54;91867.81;;;7.14;76.97
84835;BME280;75078;42.636;23.198;2024-03-07T12:45:19;91871.22;;;7.06;78.04
84835;BME280;75078;42.636;23.198;2024-03-07T12:47:51;91868.25;;;7.04;77.30
84835;BME280;75078;42.636;23.198;2024-03-07T12:50:19;91877.69;;;7.00;77.57
84835;BME280;75078;42.636;23.198;2024-03-07T12:52:48;91869.00;;;7.05;77.66
84835;BME280;75078;42.636;23.198;2024-03-07T12:55:17;91867.44;;;7.00;78.37
84835;BME280;75078;42.636;23.198;2024-03-07T12:57:49;91875.72;;;7.09;77.40
84835;BME280;75078;42.636;23.198;2024-03-07T13:00:17;91877.38;;;7.17;77.27
84835;BME280;75078;42.636;23.198;2024-03-07T13:02:47;91877.53;;;7.24;77.02
84835;BME280;75078;42.636;23.198;2024-03-07T13:05:13;91878.19;;;7.21;77.99
84835;BME280;75078;42.636;23.198;2024-03-07T13:07:47;91885.78;;;7.18;76.82
84835;BME280;75078;42.636;23.198;2024-03-07T13:10:13;91889.28;;;6.70;73.93